Flagstaff, AZ (86004)

10:10 AM MST on February 08, 2016 (GMT -0700)
Swiss Manor | | Change Station
CLOSE
Current Station
Personal Weather Station
Location: Flagstaff, AZ
Elevation: 7034 ft
Nearby Weather Stations

Elev 7034 ft 35.22 °N, 111.60 °W | Updated 13 minutes ago

Clear
Clear
49.8 °F
Feels Like 46 °F
N
9.0
Wind Variable Wind from North

Today
High -- | Low -- °F
--% Chance of Precip.
Yesterday
High -- | Low -- °F
Precip. -- in
Pressure 30.42 in
Visibility 10.0 miles
Clouds Clear
Windchill 46 °F
Dew Point 13 °F
Humidity 23%
Rainfall 0.00 in
Snow Depth Not available.
7:19 AM 6:01 PM
New Moon, 0% visible
METAR KFLG 081657Z 07012G23KT 10SM CLR 07/M10 A3052 RMK AO2 PK WND 07028/1608 SLP301 T00721100
Pressure 30.42 in
Visibility 10.0 miles
Clouds Clear
Windchill 46 °F
Dew Point 13 °F
Humidity 23%
Rainfall 0.00 in
Snow Depth Not available.
7:19 AM 6:01 PM
New Moon, 0% visible
METAR KFLG 081657Z 07012G23KT 10SM CLR 07/M10 A3052 RMK AO2 PK WND 07028/1608 SLP301 T00721100

10-Day Weather Forecast

Almanac

Astronomy

Feb. 08, 2016 Rise Set
Actual Time
Civil Twilight
Nautical Twilight
Astronomical Twilight
Moon
Length of Visible Light
Length of Day
Tomorrow will be .
, % of the Moon is Illuminated

Today's Extremes

State Highs State Lows

Community

WunderPhotos

Upload Photos

1,891,471 photos uploaded!

WunderBlog® & News

Nearby

Air Quality

  Air Quality AQ Index Pollutant
Not available.

Snow Depth

Station Depth Elevation

Earthquake Activity

City Distance Mag. Time & Date
Minimum magnitude displayed is 2.5.

Coastal Water Temperatures

Place Temperature

Stations

Nearby Weather Stations

Station Location Temp. Windchill Dew Point Humidity Wind Precip. Elev Updated Type
                   

Watches & Warnings

There are currently no watches in effect.